CFG4AK EDDH-LEIB
Flight info
| Callsign | CFG4AK |
|---|---|
| Flight time | 2h 34m |
| Altitude | 23000 |
| Route | IDEKO7G IDEKO N850 PIROT/N0453F330 N850 XAROL/N0456F340 DCT BOMBI DCT GIGET DCT ABUKA DCT KRH DCT NATOR/N0458F330 DCT LUTIX DCT BENOT DCT NEMOS DCT GEVEA DCT INCUS DCT BALSI DCT RETNO DCT TUPOX DCT MTG DCT DIVKO DCT VATIR/N0456F310 DCT PIVUS DCT SULID DCT DIMIB DCT POS |
| Aircraft | A321/M-SDE3FGHIRWY/LB1 |
Departure
| Time | 2026-05-06 18:51 |
|---|---|
| Airport | Hamburg Helmut Schmidt Airport (EDDH) |
Arrival
| Time | 2026-05-06 21:25 |
|---|---|
| Airport | Ibiza Airport (LEIB) |
| Time | Latitude | Longitude | Altitude | Speed | Heading |
|---|---|---|---|---|---|
| 2026-05-06 18:01 | 53.63372 | 10.00336 | 46 ft | 0 kts | 86° |
| 2026-05-06 18:28 | 53.63371 | 10.00303 | 47 ft | 4 kts | 86° |
| 2026-05-06 18:28 | 53.63370 | 10.00267 | 43 ft | 4 kts | 103° |
| 2026-05-06 18:28 | 53.63382 | 10.00233 | 46 ft | 4 kts | 153° |
| 2026-05-06 18:29 | 53.63396 | 10.00225 | 45 ft | 0 kts | 175° |
| 2026-05-06 18:31 | 53.63394 | 10.00225 | 45 ft | 2 kts | 175° |
| 2026-05-06 18:31 | 53.63365 | 10.00229 | 46 ft | 6 kts | 175° |
| 2026-05-06 18:31 | 53.63311 | 10.00235 | 48 ft | 10 kts | 175° |
| 2026-05-06 18:32 | 53.63243 | 10.00244 | 48 ft | 9 kts | 175° |
| 2026-05-06 18:32 | 53.63186 | 10.00251 | 48 ft | 7 kts | 176° |
| 2026-05-06 18:32 | 53.63141 | 10.00256 | 47 ft | 6 kts | 176° |
| 2026-05-06 18:32 | 53.63102 | 10.00261 | 48 ft | 6 kts | 176° |
| 2026-05-06 18:33 | 53.63052 | 10.00241 | 48 ft | 10 kts | 207° |
| 2026-05-06 18:33 | 53.62987 | 10.00177 | 47 ft | 10 kts | 212° |
| 2026-05-06 18:33 | 53.62935 | 10.00120 | 48 ft | 8 kts | 213° |
| 2026-05-06 18:33 | 53.62893 | 10.00073 | 48 ft | 6 kts | 214° |
| 2026-05-06 18:34 | 53.62891 | 10.00070 | 48 ft | 0 kts | 216° |
| 2026-05-06 18:36 | 53.62885 | 10.00063 | 48 ft | 1 kts | 218° |
| 2026-05-06 18:36 | 53.62877 | 10.00049 | 47 ft | 2 kts | 228° |
| 2026-05-06 18:37 | 53.62874 | 10.00041 | 47 ft | 0 kts | 232° |
| 2026-05-06 18:37 | 53.62849 | 9.99973 | 48 ft | 8 kts | 242° |
| 2026-05-06 18:37 | 53.62845 | 9.99959 | 45 ft | 0 kts | 242° |
| 2026-05-06 18:49 | 53.62842 | 9.99951 | 47 ft | 3 kts | 242° |
| 2026-05-06 18:49 | 53.62823 | 9.99890 | 46 ft | 8 kts | 242° |
| 2026-05-06 18:49 | 53.62829 | 9.99787 | 43 ft | 9 kts | 313° |
| 2026-05-06 18:49 | 53.62866 | 9.99747 | 45 ft | 0 kts | 332° |
| 2026-05-06 18:50 | 53.62871 | 9.99742 | 45 ft | 5 kts | 332° |
| 2026-05-06 18:50 | 53.63030 | 9.99603 | 44 ft | 57 kts | 333° |
| 2026-05-06 18:50 | 53.63577 | 9.99135 | 48 ft | 117 kts | 333° |
| 2026-05-06 18:50 | 53.64452 | 9.98392 | 62 ft | 160 kts | 336° |
| 2026-05-06 18:51 | 53.65436 | 9.97557 | 715 ft | 153 kts | 338° |
| 2026-05-06 18:51 | 53.66404 | 9.96758 | 1316 ft | 157 kts | 339° |
| 2026-05-06 18:51 | 53.67408 | 9.95933 | 1715 ft | 168 kts | 340° |
| 2026-05-06 18:51 | 53.68513 | 9.94996 | 1855 ft | 187 kts | 338° |
| 2026-05-06 18:52 | 53.69728 | 9.93946 | 2010 ft | 204 kts | 337° |
| 2026-05-06 18:52 | 53.70984 | 9.92651 | 2254 ft | 221 kts | 318° |
| 2026-05-06 18:52 | 53.71643 | 9.90273 | 2645 ft | 237 kts | 276° |
| 2026-05-06 18:52 | 53.71466 | 9.87379 | 2806 ft | 262 kts | 256° |
| 2026-05-06 18:53 | 53.70888 | 9.84365 | 3255 ft | 275 kts | 249° |
| 2026-05-06 18:53 | 53.70185 | 9.81365 | 3829 ft | 281 kts | 248° |
| 2026-05-06 18:53 | 53.69458 | 9.78307 | 4331 ft | 281 kts | 249° |
| 2026-05-06 18:53 | 53.68750 | 9.75206 | 5154 ft | 281 kts | 250° |
| 2026-05-06 18:54 | 53.68089 | 9.72146 | 5917 ft | 282 kts | 251° |
| 2026-05-06 18:54 | 53.67440 | 9.69002 | 6644 ft | 283 kts | 252° |
| 2026-05-06 18:54 | 53.66810 | 9.65857 | 7400 ft | 285 kts | 253° |
| 2026-05-06 18:54 | 53.66133 | 9.62690 | 8071 ft | 290 kts | 244° |
| 2026-05-06 18:55 | 53.64978 | 9.59945 | 8749 ft | 294 kts | 224° |
| 2026-05-06 18:55 | 53.63289 | 9.57986 | 9414 ft | 298 kts | 203° |
| 2026-05-06 18:55 | 53.61284 | 9.57092 | 9802 ft | 299 kts | 186° |
| 2026-05-06 18:55 | 53.59199 | 9.56691 | 9886 ft | 312 kts | 185° |
| 2026-05-06 18:56 | 53.56953 | 9.56273 | 9904 ft | 337 kts | 185° |
| 2026-05-06 18:56 | 53.54545 | 9.55823 | 9957 ft | 358 kts | 185° |
| 2026-05-06 18:56 | 53.52000 | 9.55338 | 10074 ft | 377 kts | 186° |
| 2026-05-06 18:56 | 53.49335 | 9.54822 | 10219 ft | 392 kts | 185° |
| 2026-05-06 18:57 | 53.46599 | 9.54283 | 10640 ft | 398 kts | 186° |
| 2026-05-06 18:57 | 53.43838 | 9.53733 | 11156 ft | 400 kts | 186° |
| 2026-05-06 18:57 | 53.41072 | 9.53182 | 11715 ft | 402 kts | 186° |
| 2026-05-06 18:57 | 53.38278 | 9.52628 | 12236 ft | 404 kts | 187° |
| 2026-05-06 18:58 | 53.35477 | 9.52077 | 12760 ft | 406 kts | 187° |
| 2026-05-06 18:58 | 53.32695 | 9.51532 | 13363 ft | 406 kts | 187° |
| 2026-05-06 18:58 | 53.29862 | 9.50977 | 13880 ft | 407 kts | 187° |
| 2026-05-06 18:58 | 53.27030 | 9.50422 | 14318 ft | 410 kts | 187° |
| 2026-05-06 18:59 | 53.24212 | 9.49870 | 14784 ft | 411 kts | 187° |
| 2026-05-06 18:59 | 53.21342 | 9.49308 | 15225 ft | 413 kts | 187° |
| 2026-05-06 18:59 | 53.18479 | 9.48748 | 15668 ft | 415 kts | 188° |
| 2026-05-06 18:59 | 53.15631 | 9.48196 | 16069 ft | 418 kts | 187° |
| 2026-05-06 19:00 | 53.12692 | 9.47631 | 16481 ft | 421 kts | 187° |
| 2026-05-06 19:00 | 53.09777 | 9.47069 | 16915 ft | 423 kts | 187° |
| 2026-05-06 19:00 | 53.06884 | 9.46511 | 17345 ft | 425 kts | 188° |
| 2026-05-06 19:00 | 53.03934 | 9.45941 | 17779 ft | 427 kts | 188° |
| 2026-05-06 19:01 | 53.00978 | 9.45369 | 18195 ft | 430 kts | 188° |
| 2026-05-06 19:01 | 52.97992 | 9.44787 | 18550 ft | 432 kts | 188° |
| 2026-05-06 19:01 | 52.95002 | 9.44170 | 18894 ft | 434 kts | 188° |
| 2026-05-06 19:01 | 52.91997 | 9.43524 | 19241 ft | 436 kts | 188° |
| 2026-05-06 19:02 | 52.88979 | 9.42857 | 19581 ft | 439 kts | 189° |
| 2026-05-06 19:02 | 52.85946 | 9.42185 | 19927 ft | 440 kts | 189° |
| 2026-05-06 19:02 | 52.82899 | 9.41520 | 20289 ft | 442 kts | 189° |
| 2026-05-06 19:02 | 52.79873 | 9.40870 | 20628 ft | 444 kts | 189° |
| 2026-05-06 19:03 | 52.76795 | 9.40215 | 20946 ft | 447 kts | 188° |
| 2026-05-06 19:03 | 52.73701 | 9.39563 | 21262 ft | 449 kts | 188° |
| 2026-05-06 19:03 | 52.70594 | 9.38912 | 21561 ft | 451 kts | 188° |
| 2026-05-06 19:03 | 52.67469 | 9.38255 | 21884 ft | 453 kts | 189° |
| 2026-05-06 19:04 | 52.64335 | 9.37594 | 22180 ft | 456 kts | 189° |
| 2026-05-06 19:04 | 52.61181 | 9.36917 | 22490 ft | 457 kts | 189° |
| 2026-05-06 19:04 | 52.58025 | 9.36157 | 22790 ft | 459 kts | 190° |
| 2026-05-06 19:04 | 52.54868 | 9.35330 | 22857 ft | 458 kts | 191° |
| 2026-05-06 19:05 | 52.51728 | 9.34470 | 22860 ft | 458 kts | 191° |
| 2026-05-06 19:05 | 52.48581 | 9.33598 | 22856 ft | 458 kts | 191° |
| 2026-05-06 19:05 | 52.45438 | 9.32737 | 22857 ft | 458 kts | 191° |
| 2026-05-06 19:05 | 52.42295 | 9.31892 | 22859 ft | 458 kts | 191° |
| 2026-05-06 19:06 | 52.39145 | 9.31060 | 22847 ft | 458 kts | 191° |
| 2026-05-06 19:06 | 52.35989 | 9.30236 | 22860 ft | 459 kts | 191° |
| 2026-05-06 19:06 | 52.32876 | 9.29429 | 22866 ft | 459 kts | 191° |
| 2026-05-06 19:06 | 52.29708 | 9.28608 | 22917 ft | 465 kts | 191° |
| 2026-05-06 19:07 | 52.26497 | 9.27773 | 23143 ft | 468 kts | 191° |
| 2026-05-06 19:07 | 52.23281 | 9.26942 | 23493 ft | 468 kts | 191° |
| 2026-05-06 19:07 | 52.20047 | 9.26203 | 23834 ft | 468 kts | 189° |
| 2026-05-06 19:07 | 52.16821 | 9.25585 | 24187 ft | 468 kts | 188° |
| 2026-05-06 19:08 | 52.13579 | 9.25037 | 24484 ft | 468 kts | 187° |
| 2026-05-06 19:08 | 52.10331 | 9.24515 | 24782 ft | 469 kts | 187° |
| 2026-05-06 19:08 | 52.07087 | 9.23989 | 25125 ft | 468 kts | 187° |
| 2026-05-06 19:08 | 52.03857 | 9.23420 | 25485 ft | 466 kts | 188° |
| 2026-05-06 19:09 | 52.00687 | 9.22710 | 25835 ft | 465 kts | 190° |
| 2026-05-06 19:09 | 51.97487 | 9.21866 | 26208 ft | 463 kts | 191° |
| 2026-05-06 19:09 | 51.94320 | 9.20962 | 26577 ft | 462 kts | 192° |
| 2026-05-06 19:09 | 51.91151 | 9.20048 | 26942 ft | 461 kts | 191° |
| 2026-05-06 19:10 | 51.87996 | 9.19162 | 27321 ft | 459 kts | 191° |
| 2026-05-06 19:10 | 51.84839 | 9.18363 | 27714 ft | 458 kts | 189° |
| 2026-05-06 19:10 | 51.81683 | 9.17658 | 28080 ft | 457 kts | 188° |
| 2026-05-06 19:10 | 51.78534 | 9.17009 | 28464 ft | 456 kts | 188° |
| 2026-05-06 19:11 | 51.75395 | 9.16386 | 28817 ft | 454 kts | 188° |
| 2026-05-06 19:11 | 51.72255 | 9.15761 | 29176 ft | 453 kts | 188° |
| 2026-05-06 19:11 | 51.69137 | 9.15122 | 29530 ft | 452 kts | 188° |
| 2026-05-06 19:11 | 51.66029 | 9.14463 | 30007 ft | 446 kts | 189° |
| 2026-05-06 19:12 | 51.63000 | 9.13806 | 30470 ft | 441 kts | 189° |
| 2026-05-06 19:12 | 51.59977 | 9.13145 | 30818 ft | 438 kts | 189° |
| 2026-05-06 19:12 | 51.56955 | 9.12481 | 31119 ft | 437 kts | 189° |
| 2026-05-06 19:12 | 51.53941 | 9.11821 | 31408 ft | 437 kts | 189° |
| 2026-05-06 19:13 | 51.50924 | 9.11167 | 31696 ft | 436 kts | 190° |
| 2026-05-06 19:13 | 51.47924 | 9.10394 | 31977 ft | 435 kts | 192° |
| 2026-05-06 19:13 | 51.44958 | 9.09453 | 32241 ft | 434 kts | 194° |
| 2026-05-06 19:13 | 51.42026 | 9.08408 | 32576 ft | 432 kts | 194° |
| 2026-05-06 19:14 | 51.39098 | 9.07317 | 32859 ft | 431 kts | 195° |
| 2026-05-06 19:14 | 51.36182 | 9.06235 | 33069 ft | 432 kts | 194° |
| 2026-05-06 19:14 | 51.33245 | 9.05178 | 32824 ft | 431 kts | 194° |
| 2026-05-06 19:15 | 51.27340 | 9.03466 | 32834 ft | 432 kts | 189° |
| 2026-05-06 19:15 | 51.21369 | 9.02389 | 32830 ft | 431 kts | 187° |
| 2026-05-06 19:16 | 51.15408 | 9.01384 | 32838 ft | 430 kts | 188° |
| 2026-05-06 19:16 | 51.09507 | 9.00267 | 32837 ft | 430 kts | 189° |
| 2026-05-06 19:17 | 51.03574 | 8.99059 | 32836 ft | 430 kts | 189° |
| 2026-05-06 19:17 | 50.97641 | 8.97847 | 32827 ft | 429 kts | 188° |
| 2026-05-06 19:18 | 50.91718 | 8.96672 | 32832 ft | 428 kts | 188° |
| 2026-05-06 19:18 | 50.85787 | 8.95513 | 32831 ft | 428 kts | 188° |
| 2026-05-06 19:19 | 50.79866 | 8.94353 | 32827 ft | 428 kts | 188° |
| 2026-05-06 19:19 | 50.73954 | 8.93203 | 32827 ft | 429 kts | 188° |
| 2026-05-06 19:20 | 50.68033 | 8.92047 | 32827 ft | 428 kts | 188° |
| 2026-05-06 19:20 | 50.62127 | 8.90893 | 32824 ft | 428 kts | 188° |
| 2026-05-06 19:21 | 50.56252 | 8.89743 | 32824 ft | 428 kts | 188° |
| 2026-05-06 19:21 | 50.50333 | 8.88597 | 32825 ft | 427 kts | 188° |
| 2026-05-06 19:22 | 50.44432 | 8.87459 | 32824 ft | 427 kts | 188° |
| 2026-05-06 19:22 | 50.38549 | 8.86318 | 32824 ft | 427 kts | 188° |
| 2026-05-06 19:23 | 50.32644 | 8.85185 | 32829 ft | 427 kts | 188° |
| 2026-05-06 19:23 | 50.26756 | 8.84062 | 32830 ft | 427 kts | 187° |
| 2026-05-06 19:24 | 50.20836 | 8.82930 | 32833 ft | 427 kts | 187° |
| 2026-05-06 19:24 | 50.14935 | 8.81807 | 32836 ft | 427 kts | 187° |
| 2026-05-06 19:25 | 50.10001 | 8.80865 | 32839 ft | 427 kts | 187° |
| 2026-05-06 19:25 | 50.07084 | 8.80303 | 33087 ft | 427 kts | 187° |
| 2026-05-06 19:25 | 50.04134 | 8.79733 | 33409 ft | 425 kts | 188° |
| 2026-05-06 19:25 | 50.01205 | 8.79141 | 33711 ft | 424 kts | 188° |
| 2026-05-06 19:26 | 49.98281 | 8.78528 | 33825 ft | 424 kts | 188° |
| 2026-05-06 19:26 | 49.92447 | 8.77285 | 33838 ft | 423 kts | 188° |
| 2026-05-06 19:27 | 49.86621 | 8.76061 | 33830 ft | 423 kts | 188° |
| 2026-05-06 19:27 | 49.80781 | 8.74860 | 33840 ft | 423 kts | 188° |
| 2026-05-06 19:28 | 49.74947 | 8.73663 | 33843 ft | 423 kts | 188° |
| 2026-05-06 19:28 | 49.69109 | 8.72465 | 33842 ft | 423 kts | 188° |
| 2026-05-06 19:29 | 49.63273 | 8.71274 | 33834 ft | 423 kts | 187° |
| 2026-05-06 19:29 | 49.57462 | 8.70115 | 33834 ft | 423 kts | 187° |
| 2026-05-06 19:30 | 49.51615 | 8.68938 | 33831 ft | 424 kts | 188° |
| 2026-05-06 19:30 | 49.45763 | 8.67754 | 33829 ft | 424 kts | 188° |
| 2026-05-06 19:31 | 49.39911 | 8.66563 | 33828 ft | 425 kts | 188° |
| 2026-05-06 19:31 | 49.31098 | 8.64798 | 33844 ft | 426 kts | 188° |
| 2026-05-06 19:32 | 49.25215 | 8.63612 | 33843 ft | 427 kts | 188° |
| 2026-05-06 19:32 | 49.19317 | 8.62429 | 33839 ft | 427 kts | 188° |
| 2026-05-06 19:33 | 49.13417 | 8.61251 | 33835 ft | 428 kts | 188° |
| 2026-05-06 19:33 | 49.07551 | 8.60079 | 33837 ft | 428 kts | 188° |
| 2026-05-06 19:34 | 49.01631 | 8.58894 | 33855 ft | 428 kts | 188° |
| 2026-05-06 19:34 | 48.95729 | 8.57502 | 33852 ft | 429 kts | 191° |
| 2026-05-06 19:35 | 48.89904 | 8.55563 | 33852 ft | 429 kts | 193° |
| 2026-05-06 19:35 | 48.84079 | 8.53518 | 33855 ft | 429 kts | 193° |
| 2026-05-06 19:36 | 48.78234 | 8.51576 | 33864 ft | 430 kts | 192° |
| 2026-05-06 19:36 | 48.72376 | 8.49712 | 33869 ft | 430 kts | 192° |
| 2026-05-06 19:37 | 48.66514 | 8.47855 | 33871 ft | 431 kts | 193° |
| 2026-05-06 19:37 | 48.60679 | 8.45988 | 33874 ft | 431 kts | 193° |
| 2026-05-06 19:38 | 48.54816 | 8.44109 | 33880 ft | 431 kts | 193° |
| 2026-05-06 19:38 | 48.48944 | 8.42239 | 33886 ft | 431 kts | 193° |
| 2026-05-06 19:39 | 48.43066 | 8.40372 | 33897 ft | 431 kts | 193° |
| 2026-05-06 19:39 | 48.37190 | 8.38497 | 33898 ft | 431 kts | 193° |
| 2026-05-06 19:40 | 48.31316 | 8.36640 | 33897 ft | 431 kts | 193° |
| 2026-05-06 19:40 | 48.25434 | 8.34787 | 33912 ft | 431 kts | 193° |
| 2026-05-06 19:41 | 48.19573 | 8.32914 | 33911 ft | 431 kts | 196° |
| 2026-05-06 19:41 | 48.14113 | 8.29366 | 33909 ft | 429 kts | 213° |
| 2026-05-06 19:42 | 48.09118 | 8.24500 | 33923 ft | 428 kts | 213° |
| 2026-05-06 19:42 | 48.04110 | 8.19676 | 33914 ft | 428 kts | 213° |
| 2026-05-06 19:43 | 47.99127 | 8.14892 | 33928 ft | 428 kts | 213° |
| 2026-05-06 19:43 | 47.94115 | 8.10089 | 33937 ft | 428 kts | 212° |
| 2026-05-06 19:44 | 47.89100 | 8.05294 | 33942 ft | 427 kts | 213° |
| 2026-05-06 19:44 | 47.84101 | 8.00522 | 33950 ft | 427 kts | 213° |
| 2026-05-06 19:45 | 47.79098 | 7.95752 | 33945 ft | 427 kts | 213° |
| 2026-05-06 19:45 | 47.74097 | 7.90992 | 33946 ft | 426 kts | 213° |
| 2026-05-06 19:46 | 47.69092 | 7.86263 | 33961 ft | 426 kts | 213° |
| 2026-05-06 19:46 | 47.64132 | 7.81578 | 33963 ft | 425 kts | 213° |
| 2026-05-06 19:47 | 47.59154 | 7.76872 | 33966 ft | 425 kts | 213° |
| 2026-05-06 19:47 | 47.54172 | 7.72170 | 33965 ft | 424 kts | 213° |
| 2026-05-06 19:48 | 47.49184 | 7.67495 | 33966 ft | 423 kts | 212° |
| 2026-05-06 19:48 | 47.44206 | 7.62838 | 33964 ft | 423 kts | 212° |
| 2026-05-06 19:49 | 47.39238 | 7.58194 | 33965 ft | 422 kts | 212° |
| 2026-05-06 19:49 | 47.34277 | 7.53555 | 33953 ft | 422 kts | 213° |
| 2026-05-06 19:50 | 47.29317 | 7.48941 | 33960 ft | 422 kts | 212° |
| 2026-05-06 19:50 | 47.24342 | 7.44328 | 33957 ft | 422 kts | 212° |
| 2026-05-06 19:51 | 47.21888 | 7.42053 | 34063 ft | 424 kts | 212° |
| 2026-05-06 19:51 | 47.19386 | 7.39735 | 34245 ft | 425 kts | 212° |
| 2026-05-06 19:51 | 47.16996 | 7.37175 | 34418 ft | 425 kts | 221° |
| 2026-05-06 19:51 | 47.14906 | 7.34086 | 34586 ft | 426 kts | 230° |
| 2026-05-06 19:52 | 47.13064 | 7.30677 | 34756 ft | 427 kts | 231° |
| 2026-05-06 19:52 | 47.11221 | 7.27262 | 34905 ft | 428 kts | 230° |
| 2026-05-06 19:52 | 47.07495 | 7.20434 | 34924 ft | 428 kts | 230° |
| 2026-05-06 19:53 | 47.03767 | 7.13624 | 34943 ft | 428 kts | 230° |
| 2026-05-06 19:53 | 47.00047 | 7.06801 | 34943 ft | 428 kts | 230° |
| 2026-05-06 19:54 | 46.96329 | 7.00005 | 34941 ft | 428 kts | 230° |
| 2026-05-06 19:54 | 46.92623 | 6.93266 | 34946 ft | 428 kts | 230° |
| 2026-05-06 19:55 | 46.88351 | 6.87238 | 34937 ft | 429 kts | 219° |
| 2026-05-06 19:55 | 46.83721 | 6.81722 | 34941 ft | 430 kts | 219° |
| 2026-05-06 19:56 | 46.79063 | 6.76185 | 34941 ft | 431 kts | 219° |
| 2026-05-06 19:56 | 46.74437 | 6.70700 | 34952 ft | 431 kts | 219° |
| 2026-05-06 19:57 | 46.69780 | 6.65191 | 34959 ft | 431 kts | 219° |
| 2026-05-06 19:57 | 46.65129 | 6.59696 | 34961 ft | 430 kts | 219° |
| 2026-05-06 19:58 | 46.60469 | 6.54200 | 34959 ft | 430 kts | 219° |
| 2026-05-06 19:58 | 46.55821 | 6.48731 | 34959 ft | 430 kts | 219° |
| 2026-05-06 19:59 | 46.51163 | 6.43262 | 34965 ft | 431 kts | 219° |
| 2026-05-06 19:59 | 46.46494 | 6.37788 | 34950 ft | 432 kts | 219° |
| 2026-05-06 20:00 | 46.41809 | 6.32304 | 34949 ft | 433 kts | 219° |
| 2026-05-06 20:00 | 46.37118 | 6.26829 | 34977 ft | 433 kts | 219° |
| 2026-05-06 20:01 | 46.32415 | 6.21366 | 34989 ft | 433 kts | 219° |
| 2026-05-06 20:01 | 46.27658 | 6.16012 | 34991 ft | 434 kts | 213° |
| 2026-05-06 20:02 | 46.22123 | 6.12570 | 34990 ft | 436 kts | 194° |
| 2026-05-06 20:02 | 46.16106 | 6.11170 | 34984 ft | 438 kts | 191° |
| 2026-05-06 20:03 | 46.10117 | 6.09836 | 34983 ft | 438 kts | 191° |
| 2026-05-06 20:03 | 46.04094 | 6.08485 | 34988 ft | 438 kts | 191° |
| 2026-05-06 20:04 | 45.98070 | 6.07143 | 34981 ft | 438 kts | 191° |
| 2026-05-06 20:04 | 45.92044 | 6.05824 | 34990 ft | 437 kts | 191° |
| 2026-05-06 20:05 | 45.86022 | 6.04509 | 34994 ft | 437 kts | 191° |
| 2026-05-06 20:05 | 45.80012 | 6.03183 | 34986 ft | 437 kts | 192° |
| 2026-05-06 20:06 | 45.74012 | 6.01857 | 34984 ft | 436 kts | 191° |
| 2026-05-06 20:06 | 45.68043 | 6.00536 | 34989 ft | 435 kts | 192° |
| 2026-05-06 20:07 | 45.62051 | 5.99213 | 34992 ft | 435 kts | 192° |
| 2026-05-06 20:07 | 45.56067 | 5.97891 | 34995 ft | 435 kts | 192° |
| 2026-05-06 20:08 | 45.50086 | 5.96590 | 34993 ft | 434 kts | 192° |
| 2026-05-06 20:08 | 45.44144 | 5.95141 | 34988 ft | 432 kts | 194° |
| 2026-05-06 20:09 | 45.39261 | 5.93597 | 34981 ft | 432 kts | 196° |
| 2026-05-06 20:09 | 45.32460 | 5.91315 | 34984 ft | 431 kts | 196° |
| 2026-05-06 20:10 | 45.27549 | 5.89738 | 34988 ft | 431 kts | 195° |
| 2026-05-06 20:10 | 45.21675 | 5.87922 | 34981 ft | 431 kts | 195° |
| 2026-05-06 20:11 | 45.15847 | 5.86138 | 34990 ft | 430 kts | 195° |
| 2026-05-06 20:11 | 45.09997 | 5.84331 | 34992 ft | 430 kts | 195° |
| 2026-05-06 20:12 | 45.04157 | 5.82529 | 34973 ft | 429 kts | 195° |
| 2026-05-06 20:12 | 44.98331 | 5.80729 | 34987 ft | 428 kts | 196° |
| 2026-05-06 20:13 | 44.92525 | 5.78936 | 34990 ft | 427 kts | 196° |
| 2026-05-06 20:13 | 44.86713 | 5.77169 | 34991 ft | 426 kts | 196° |
| 2026-05-06 20:14 | 44.80914 | 5.75387 | 34981 ft | 425 kts | 196° |
| 2026-05-06 20:14 | 44.75141 | 5.73615 | 34987 ft | 424 kts | 196° |
| 2026-05-06 20:15 | 44.69377 | 5.71867 | 34989 ft | 423 kts | 196° |
| 2026-05-06 20:15 | 44.63618 | 5.70116 | 34992 ft | 424 kts | 196° |
| 2026-05-06 20:16 | 44.57835 | 5.68358 | 34972 ft | 425 kts | 196° |
| 2026-05-06 20:16 | 44.52049 | 5.66602 | 34964 ft | 426 kts | 196° |
| 2026-05-06 20:17 | 44.46239 | 5.64845 | 34952 ft | 426 kts | 196° |
| 2026-05-06 20:17 | 44.40434 | 5.63091 | 34960 ft | 426 kts | 196° |
| 2026-05-06 20:18 | 44.34850 | 5.60627 | 34966 ft | 421 kts | 205° |
| 2026-05-06 20:18 | 44.29395 | 5.57622 | 34967 ft | 421 kts | 205° |
| 2026-05-06 20:19 | 44.23934 | 5.54636 | 34963 ft | 421 kts | 205° |
| 2026-05-06 20:19 | 44.18482 | 5.51668 | 34969 ft | 420 kts | 205° |
| 2026-05-06 20:20 | 44.13031 | 5.48700 | 34974 ft | 420 kts | 205° |
| 2026-05-06 20:20 | 44.07582 | 5.45739 | 34962 ft | 419 kts | 205° |
| 2026-05-06 20:21 | 44.02152 | 5.42788 | 34974 ft | 418 kts | 205° |
| 2026-05-06 20:21 | 43.96741 | 5.39847 | 34976 ft | 417 kts | 205° |
| 2026-05-06 20:22 | 43.91339 | 5.36925 | 34975 ft | 417 kts | 205° |
| 2026-05-06 20:22 | 43.85969 | 5.34030 | 34961 ft | 416 kts | 205° |
| 2026-05-06 20:23 | 43.80576 | 5.31117 | 34970 ft | 416 kts | 205° |
| 2026-05-06 20:23 | 43.75170 | 5.28196 | 34967 ft | 417 kts | 205° |
| 2026-05-06 20:24 | 43.69741 | 5.25285 | 34950 ft | 417 kts | 205° |
| 2026-05-06 20:24 | 43.64322 | 5.22394 | 34982 ft | 417 kts | 205° |
| 2026-05-06 20:25 | 43.58915 | 5.19500 | 34981 ft | 417 kts | 205° |
| 2026-05-06 20:25 | 43.53540 | 5.16627 | 34974 ft | 416 kts | 205° |
| 2026-05-06 20:26 | 43.48141 | 5.13746 | 34979 ft | 416 kts | 206° |
| 2026-05-06 20:26 | 43.42739 | 5.10869 | 34983 ft | 416 kts | 206° |
| 2026-05-06 20:27 | 43.37502 | 5.07614 | 34979 ft | 410 kts | 216° |
| 2026-05-06 20:27 | 43.32814 | 5.03204 | 34973 ft | 409 kts | 218° |
| 2026-05-06 20:28 | 43.28126 | 4.98784 | 34950 ft | 408 kts | 218° |
| 2026-05-06 20:28 | 43.23440 | 4.94382 | 34980 ft | 408 kts | 218° |
| 2026-05-06 20:29 | 43.18746 | 4.89976 | 34968 ft | 409 kts | 218° |
| 2026-05-06 20:29 | 43.14045 | 4.85570 | 34969 ft | 409 kts | 218° |
| 2026-05-06 20:30 | 43.07016 | 4.79003 | 34974 ft | 409 kts | 218° |
| 2026-05-06 20:31 | 43.02117 | 4.75018 | 34979 ft | 411 kts | 213° |
| 2026-05-06 20:31 | 42.97088 | 4.71203 | 34984 ft | 418 kts | 213° |
| 2026-05-06 20:32 | 42.91956 | 4.67326 | 34970 ft | 425 kts | 213° |
| 2026-05-06 20:32 | 42.86766 | 4.63412 | 34988 ft | 427 kts | 213° |
| 2026-05-06 20:33 | 42.81558 | 4.59481 | 34991 ft | 427 kts | 213° |
| 2026-05-06 20:33 | 42.76373 | 4.55578 | 34993 ft | 427 kts | 213° |
| 2026-05-06 20:34 | 42.71166 | 4.51664 | 34994 ft | 428 kts | 213° |
| 2026-05-06 20:34 | 42.65953 | 4.47754 | 34998 ft | 428 kts | 213° |
| 2026-05-06 20:35 | 42.60730 | 4.43844 | 35002 ft | 429 kts | 213° |
| 2026-05-06 20:35 | 42.55500 | 4.39941 | 35006 ft | 429 kts | 213° |
| 2026-05-06 20:36 | 42.50264 | 4.36036 | 34992 ft | 428 kts | 213° |
| 2026-05-06 20:36 | 42.45044 | 4.32140 | 35012 ft | 428 kts | 213° |
| 2026-05-06 20:37 | 42.39853 | 4.28280 | 35015 ft | 428 kts | 213° |
| 2026-05-06 20:37 | 42.34631 | 4.24406 | 35020 ft | 427 kts | 213° |
| 2026-05-06 20:38 | 42.29410 | 4.20545 | 35004 ft | 427 kts | 213° |
| 2026-05-06 20:38 | 42.24202 | 4.16697 | 35015 ft | 427 kts | 213° |
| 2026-05-06 20:39 | 42.18989 | 4.12859 | 35019 ft | 427 kts | 213° |
| 2026-05-06 20:39 | 42.13776 | 4.09025 | 35016 ft | 427 kts | 213° |
| 2026-05-06 20:40 | 42.08559 | 4.05191 | 35006 ft | 426 kts | 213° |
| 2026-05-06 20:40 | 42.03390 | 4.01405 | 35012 ft | 426 kts | 213° |
| 2026-05-06 20:41 | 41.98192 | 3.97604 | 35013 ft | 425 kts | 213° |
| 2026-05-06 20:41 | 41.92986 | 3.93812 | 35013 ft | 425 kts | 213° |
| 2026-05-06 20:42 | 41.87749 | 3.90133 | 34997 ft | 425 kts | 212° |
| 2026-05-06 20:42 | 41.82442 | 3.86611 | 35009 ft | 425 kts | 211° |
| 2026-05-06 20:43 | 41.77131 | 3.83113 | 35010 ft | 424 kts | 211° |
| 2026-05-06 20:43 | 41.71852 | 3.79587 | 35023 ft | 424 kts | 212° |
| 2026-05-06 20:44 | 41.66568 | 3.76037 | 35004 ft | 424 kts | 212° |
| 2026-05-06 20:44 | 41.61293 | 3.72506 | 35005 ft | 424 kts | 212° |
| 2026-05-06 20:45 | 41.56052 | 3.69006 | 35007 ft | 424 kts | 212° |
| 2026-05-06 20:45 | 41.50779 | 3.65500 | 35003 ft | 423 kts | 212° |
| 2026-05-06 20:46 | 41.45502 | 3.62005 | 34987 ft | 423 kts | 212° |
| 2026-05-06 20:46 | 41.40233 | 3.58520 | 34998 ft | 422 kts | 212° |
| 2026-05-06 20:47 | 41.34970 | 3.55037 | 35000 ft | 422 kts | 212° |
| 2026-05-06 20:47 | 41.29716 | 3.51561 | 34999 ft | 422 kts | 212° |
| 2026-05-06 20:48 | 41.24467 | 3.48095 | 34995 ft | 421 kts | 212° |
| 2026-05-06 20:48 | 41.19192 | 3.44700 | 34994 ft | 424 kts | 207° |
| 2026-05-06 20:49 | 41.13384 | 3.42778 | 34993 ft | 433 kts | 198° |
| 2026-05-06 20:49 | 41.07473 | 3.41230 | 34961 ft | 433 kts | 198° |
| 2026-05-06 20:50 | 41.02558 | 3.39939 | 34991 ft | 432 kts | 198° |
| 2026-05-06 20:50 | 40.95713 | 3.38131 | 34994 ft | 430 kts | 198° |
| 2026-05-06 20:51 | 40.89846 | 3.36583 | 34988 ft | 429 kts | 198° |
| 2026-05-06 20:51 | 40.84970 | 3.35304 | 34969 ft | 429 kts | 198° |
| 2026-05-06 20:52 | 40.79122 | 3.33772 | 34983 ft | 428 kts | 198° |
| 2026-05-06 20:52 | 40.73273 | 3.32242 | 34986 ft | 428 kts | 198° |
| 2026-05-06 20:53 | 40.67423 | 3.30724 | 34989 ft | 428 kts | 198° |
| 2026-05-06 20:53 | 40.61831 | 3.28471 | 34985 ft | 412 kts | 217° |
| 2026-05-06 20:54 | 40.57582 | 3.23644 | 34986 ft | 405 kts | 227° |
| 2026-05-06 20:54 | 40.53532 | 3.18491 | 34986 ft | 405 kts | 227° |
| 2026-05-06 20:55 | 40.49479 | 3.13351 | 34988 ft | 405 kts | 227° |
| 2026-05-06 20:55 | 40.45414 | 3.08212 | 34991 ft | 405 kts | 227° |
| 2026-05-06 20:56 | 40.41346 | 3.03084 | 34977 ft | 405 kts | 227° |
| 2026-05-06 20:56 | 40.37275 | 2.97948 | 34982 ft | 405 kts | 227° |
| 2026-05-06 20:56 | 40.35266 | 2.95422 | 34054 ft | 397 kts | 227° |
| 2026-05-06 20:57 | 40.33271 | 2.92919 | 32316 ft | 397 kts | 227° |
| 2026-05-06 20:57 | 40.31243 | 2.90372 | 30853 ft | 410 kts | 227° |
| 2026-05-06 20:57 | 40.29187 | 2.87791 | 30389 ft | 408 kts | 227° |
| 2026-05-06 20:57 | 40.27118 | 2.85195 | 30144 ft | 415 kts | 227° |
| 2026-05-06 20:58 | 40.25017 | 2.82562 | 29867 ft | 418 kts | 227° |
| 2026-05-06 20:58 | 40.22908 | 2.79925 | 29583 ft | 420 kts | 227° |
| 2026-05-06 20:58 | 40.20788 | 2.77276 | 29261 ft | 422 kts | 226° |
| 2026-05-06 20:58 | 40.18655 | 2.74614 | 28982 ft | 423 kts | 226° |
| 2026-05-06 20:59 | 40.16552 | 2.71993 | 28706 ft | 425 kts | 226° |
| 2026-05-06 20:59 | 40.14404 | 2.69318 | 28437 ft | 426 kts | 226° |
| 2026-05-06 20:59 | 40.12256 | 2.66639 | 28177 ft | 428 kts | 226° |
| 2026-05-06 20:59 | 40.10094 | 2.63948 | 27914 ft | 430 kts | 226° |
| 2026-05-06 21:00 | 40.07920 | 2.61247 | 27648 ft | 432 kts | 226° |
| 2026-05-06 21:00 | 40.05730 | 2.58533 | 27392 ft | 434 kts | 226° |
| 2026-05-06 21:00 | 40.03539 | 2.55819 | 27123 ft | 436 kts | 226° |
| 2026-05-06 21:00 | 40.01329 | 2.53081 | 26862 ft | 438 kts | 226° |
| 2026-05-06 21:01 | 39.99136 | 2.50363 | 26588 ft | 430 kts | 226° |
| 2026-05-06 21:01 | 39.96982 | 2.47693 | 26335 ft | 426 kts | 226° |
| 2026-05-06 21:01 | 39.94827 | 2.45024 | 26084 ft | 427 kts | 226° |
| 2026-05-06 21:01 | 39.92674 | 2.42364 | 25838 ft | 428 kts | 226° |
| 2026-05-06 21:02 | 39.90502 | 2.39690 | 25591 ft | 430 kts | 225° |
| 2026-05-06 21:02 | 39.88327 | 2.37014 | 25348 ft | 431 kts | 225° |
| 2026-05-06 21:02 | 39.86141 | 2.34325 | 25103 ft | 433 kts | 225° |
| 2026-05-06 21:02 | 39.83945 | 2.31621 | 24866 ft | 435 kts | 225° |
| 2026-05-06 21:03 | 39.81741 | 2.28906 | 24638 ft | 437 kts | 225° |
| 2026-05-06 21:03 | 39.79529 | 2.26183 | 24406 ft | 439 kts | 225° |
| 2026-05-06 21:03 | 39.77304 | 2.23448 | 24145 ft | 440 kts | 225° |
| 2026-05-06 21:03 | 39.75078 | 2.20717 | 23914 ft | 441 kts | 225° |
| 2026-05-06 21:04 | 39.72842 | 2.17980 | 23685 ft | 441 kts | 225° |
| 2026-05-06 21:04 | 39.70610 | 2.15252 | 23437 ft | 441 kts | 225° |
| 2026-05-06 21:04 | 39.68407 | 2.12561 | 23166 ft | 440 kts | 225° |
| 2026-05-06 21:04 | 39.66173 | 2.09837 | 22888 ft | 439 kts | 225° |
| 2026-05-06 21:05 | 39.63953 | 2.07131 | 22618 ft | 438 kts | 225° |
| 2026-05-06 21:05 | 39.61734 | 2.04426 | 22351 ft | 436 kts | 225° |
| 2026-05-06 21:05 | 39.59527 | 2.01734 | 22090 ft | 435 kts | 225° |
| 2026-05-06 21:05 | 39.57321 | 1.99048 | 21824 ft | 434 kts | 225° |
| 2026-05-06 21:06 | 39.55123 | 1.96376 | 21546 ft | 432 kts | 225° |
| 2026-05-06 21:06 | 39.52936 | 1.93716 | 21291 ft | 430 kts | 225° |
| 2026-05-06 21:06 | 39.50759 | 1.91069 | 21033 ft | 429 kts | 225° |
| 2026-05-06 21:06 | 39.48604 | 1.88457 | 20788 ft | 429 kts | 225° |
| 2026-05-06 21:07 | 39.46425 | 1.85824 | 20532 ft | 429 kts | 225° |
| 2026-05-06 21:07 | 39.44243 | 1.83188 | 20282 ft | 428 kts | 225° |
| 2026-05-06 21:07 | 39.42071 | 1.80563 | 20042 ft | 427 kts | 225° |
| 2026-05-06 21:07 | 39.39904 | 1.77946 | 20015 ft | 427 kts | 225° |
| 2026-05-06 21:08 | 39.37725 | 1.75317 | 20013 ft | 427 kts | 225° |
| 2026-05-06 21:08 | 39.35558 | 1.72701 | 20013 ft | 427 kts | 225° |
| 2026-05-06 21:08 | 39.33381 | 1.70076 | 20001 ft | 427 kts | 225° |
| 2026-05-06 21:08 | 39.31211 | 1.67459 | 19998 ft | 426 kts | 225° |
| 2026-05-06 21:09 | 39.29044 | 1.64847 | 19998 ft | 426 kts | 225° |
| 2026-05-06 21:09 | 39.26873 | 1.62240 | 19998 ft | 426 kts | 225° |
| 2026-05-06 21:09 | 39.24704 | 1.59638 | 19998 ft | 426 kts | 225° |
| 2026-05-06 21:09 | 39.22529 | 1.57029 | 19955 ft | 425 kts | 225° |
| 2026-05-06 21:10 | 39.20425 | 1.54510 | 18838 ft | 411 kts | 224° |
| 2026-05-06 21:10 | 39.18331 | 1.52002 | 16995 ft | 411 kts | 224° |
| 2026-05-06 21:10 | 39.16215 | 1.49464 | 15577 ft | 420 kts | 224° |
| 2026-05-06 21:10 | 39.14098 | 1.46928 | 15146 ft | 411 kts | 224° |
| 2026-05-06 21:11 | 39.12019 | 1.44449 | 14734 ft | 402 kts | 224° |
| 2026-05-06 21:11 | 39.10011 | 1.41999 | 14173 ft | 400 kts | 228° |
| 2026-05-06 21:11 | 39.08443 | 1.39073 | 13620 ft | 398 kts | 241° |
| 2026-05-06 21:11 | 39.07104 | 1.35959 | 13012 ft | 397 kts | 242° |
| 2026-05-06 21:12 | 39.05778 | 1.32852 | 12406 ft | 395 kts | 242° |
| 2026-05-06 21:12 | 39.04460 | 1.29777 | 11825 ft | 393 kts | 242° |
| 2026-05-06 21:12 | 39.03139 | 1.26704 | 11251 ft | 392 kts | 242° |
| 2026-05-06 21:12 | 39.01820 | 1.23650 | 10674 ft | 390 kts | 242° |
| 2026-05-06 21:13 | 39.00500 | 1.20610 | 10130 ft | 386 kts | 242° |
| 2026-05-06 21:13 | 38.99195 | 1.17619 | 9541 ft | 381 kts | 242° |
| 2026-05-06 21:13 | 38.97907 | 1.14672 | 8941 ft | 377 kts | 242° |
| 2026-05-06 21:13 | 38.96629 | 1.11760 | 8355 ft | 373 kts | 242° |
| 2026-05-06 21:14 | 38.95394 | 1.08905 | 7761 ft | 369 kts | 242° |
| 2026-05-06 21:14 | 38.94164 | 1.06025 | 7207 ft | 365 kts | 242° |
| 2026-05-06 21:14 | 38.92967 | 1.03196 | 6638 ft | 361 kts | 242° |
| 2026-05-06 21:14 | 38.91788 | 1.00375 | 6068 ft | 357 kts | 242° |
| 2026-05-06 21:15 | 38.90629 | 0.97569 | 5486 ft | 354 kts | 242° |
| 2026-05-06 21:15 | 38.89490 | 0.94783 | 4907 ft | 351 kts | 242° |
| 2026-05-06 21:15 | 38.88105 | 0.92248 | 4394 ft | 344 kts | 223° |
| 2026-05-06 21:15 | 38.86243 | 0.90480 | 4259 ft | 325 kts | 206° |
| 2026-05-06 21:16 | 38.84173 | 0.89563 | 4139 ft | 307 kts | 188° |
| 2026-05-06 21:16 | 38.82104 | 0.89483 | 3994 ft | 291 kts | 171° |
| 2026-05-06 21:16 | 38.80207 | 0.90115 | 3877 ft | 274 kts | 156° |
| 2026-05-06 21:16 | 38.78599 | 0.91307 | 3747 ft | 261 kts | 141° |
| 2026-05-06 21:17 | 38.77334 | 0.92878 | 3619 ft | 248 kts | 131° |
| 2026-05-06 21:17 | 38.76204 | 0.94484 | 3487 ft | 237 kts | 131° |
| 2026-05-06 21:17 | 38.75120 | 0.96017 | 3372 ft | 229 kts | 131° |
| 2026-05-06 21:17 | 38.74059 | 0.97517 | 3245 ft | 227 kts | 131° |
| 2026-05-06 21:18 | 38.73145 | 0.99115 | 3139 ft | 217 kts | 115° |
| 2026-05-06 21:18 | 38.72796 | 1.00943 | 3037 ft | 209 kts | 92° |
| 2026-05-06 21:18 | 38.73021 | 1.02754 | 2990 ft | 207 kts | 72° |
| 2026-05-06 21:18 | 38.73593 | 1.04396 | 2984 ft | 195 kts | 65° |
| 2026-05-06 21:19 | 38.74209 | 1.05901 | 2990 ft | 187 kts | 65° |
| 2026-05-06 21:19 | 38.74819 | 1.07363 | 2997 ft | 184 kts | 65° |
| 2026-05-06 21:19 | 38.75416 | 1.08793 | 2999 ft | 185 kts | 64° |
| 2026-05-06 21:19 | 38.76020 | 1.10238 | 3002 ft | 184 kts | 63° |
| 2026-05-06 21:20 | 38.76626 | 1.11690 | 3001 ft | 185 kts | 64° |
| 2026-05-06 21:20 | 38.77233 | 1.13141 | 3019 ft | 184 kts | 65° |
| 2026-05-06 21:20 | 38.77839 | 1.14593 | 3009 ft | 186 kts | 64° |
| 2026-05-06 21:20 | 38.78449 | 1.16056 | 3001 ft | 186 kts | 65° |
| 2026-05-06 21:21 | 38.79060 | 1.17522 | 3001 ft | 186 kts | 64° |
| 2026-05-06 21:21 | 38.79672 | 1.18989 | 2889 ft | 185 kts | 65° |
| 2026-05-06 21:21 | 38.80270 | 1.20425 | 2688 ft | 184 kts | 64° |
| 2026-05-06 21:21 | 38.80879 | 1.21885 | 2447 ft | 182 kts | 64° |
| 2026-05-06 21:22 | 38.81469 | 1.23303 | 2216 ft | 179 kts | 64° |
| 2026-05-06 21:22 | 38.82052 | 1.24704 | 1979 ft | 176 kts | 64° |
| 2026-05-06 21:22 | 38.82615 | 1.26058 | 1744 ft | 169 kts | 63° |
| 2026-05-06 21:22 | 38.83152 | 1.27349 | 1525 ft | 159 kts | 64° |
| 2026-05-06 21:23 | 38.83640 | 1.28522 | 1340 ft | 146 kts | 65° |
| 2026-05-06 21:23 | 38.84113 | 1.29660 | 1130 ft | 143 kts | 64° |
| 2026-05-06 21:23 | 38.84577 | 1.30779 | 956 ft | 142 kts | 64° |
| 2026-05-06 21:23 | 38.85017 | 1.31880 | 732 ft | 136 kts | 66° |
| 2026-05-06 21:24 | 38.85462 | 1.32947 | 508 ft | 139 kts | 64° |
| 2026-05-06 21:24 | 38.85951 | 1.34022 | 369 ft | 137 kts | 66° |
| 2026-05-06 21:24 | 38.86367 | 1.35088 | 177 ft | 130 kts | 63° |
| 2026-05-06 21:24 | 38.86779 | 1.36091 | 21 ft | 123 kts | 62° |
| 2026-05-06 21:25 | 38.87138 | 1.36950 | 11 ft | 87 kts | 60° |
| 2026-05-06 21:25 | 38.87343 | 1.37448 | 10 ft | 37 kts | 62° |
| 2026-05-06 21:25 | 38.87459 | 1.37720 | 9 ft | 32 kts | 50° |
| 2026-05-06 21:25 | 38.87614 | 1.37881 | 10 ft | 16 kts | 33° |
| 2026-05-06 21:26 | 38.87693 | 1.37867 | 9 ft | 12 kts | 282° |
| 2026-05-06 21:26 | 38.87662 | 1.37774 | 9 ft | 11 kts | 242° |
| 2026-05-06 21:26 | 38.87628 | 1.37694 | 9 ft | 10 kts | 242° |
| 2026-05-06 21:26 | 38.87599 | 1.37623 | 9 ft | 8 kts | 240° |
| 2026-05-06 21:27 | 38.87591 | 1.37561 | 9 ft | 6 kts | 303° |
| 2026-05-06 21:27 | 38.87625 | 1.37529 | 9 ft | 6 kts | 329° |
| 2026-05-06 21:27 | 38.87657 | 1.37505 | 9 ft | 5 kts | 330° |
| 2026-05-06 21:27 | 38.87683 | 1.37480 | 8 ft | 5 kts | 316° |
| 2026-05-06 21:28 | 38.87688 | 1.37418 | 8 ft | 10 kts | 252° |
| 2026-05-06 21:28 | 38.87657 | 1.37333 | 8 ft | 10 kts | 242° |
| 2026-05-06 21:28 | 38.87627 | 1.37259 | 8 ft | 9 kts | 243° |
| 2026-05-06 21:28 | 38.87599 | 1.37192 | 8 ft | 8 kts | 242° |
| 2026-05-06 21:29 | 38.87569 | 1.37119 | 8 ft | 10 kts | 242° |
| 2026-05-06 21:29 | 38.87537 | 1.37042 | 8 ft | 9 kts | 242° |
| 2026-05-06 21:29 | 38.87509 | 1.36974 | 10 ft | 8 kts | 243° |
| 2026-05-06 21:29 | 38.87486 | 1.36918 | 8 ft | 6 kts | 242° |
| 2026-05-06 21:30 | 38.87467 | 1.36872 | 8 ft | 5 kts | 242° |
| 2026-05-06 21:30 | 38.87465 | 1.36866 | 8 ft | 0 kts | 242° |
| 2026-05-06 21:30 | 38.87460 | 1.36854 | 8 ft | 4 kts | 241° |
| 2026-05-06 21:31 | 38.87447 | 1.36807 | 8 ft | 4 kts | 281° |
| 2026-05-06 21:31 | 38.87463 | 1.36795 | 8 ft | 2 kts | 332° |
| 2026-05-06 21:31 | 38.87473 | 1.36791 | 8 ft | 1 kts | 345° |
| 2026-05-06 21:31 | 38.87478 | 1.36790 | 8 ft | 1 kts | 353° |
| 2026-05-06 21:32 | 38.87485 | 1.36791 | 8 ft | 1 kts | 2° |
| 2026-05-06 21:32 | 38.87503 | 1.36795 | 8 ft | 0 kts | 13° |